createdAt,value
2022-08-05T00:00:32.973Z,30.92
2022-08-05T00:06:05.582Z,30.77
2022-08-05T00:10:47.317Z,30.61
2022-08-05T00:15:58.367Z,30.44
2022-08-05T00:21:01.956Z,30.27
2022-08-05T00:26:08.906Z,30.13
2022-08-05T00:31:15.893Z,30.01
2022-08-05T00:37:12.996Z,29.91
2022-08-05T00:41:29.963Z,29.79
2022-08-05T00:46:43.462Z,29.65
2022-08-05T00:51:51.580Z,29.55
2022-08-05T00:56:51.437Z,29.53
2022-08-05T01:01:58.841Z,29.49
2022-08-05T01:07:05.785Z,29.35
2022-08-05T01:12:18.525Z,29.13
2022-08-05T01:17:19.749Z,28.87
2022-08-05T01:22:28.301Z,28.65
2022-08-05T01:27:34.326Z,28.46
2022-08-05T01:32:41.199Z,28.30
2022-08-05T01:37:48.615Z,28.12
2022-08-05T01:42:57.478Z,27.95
2022-08-05T01:48:02.899Z,27.81
2022-08-05T01:53:09.996Z,27.67
2022-08-05T01:58:16.923Z,27.55
2022-08-05T02:03:24.418Z,27.42
2022-08-05T02:08:31.532Z,27.31
2022-08-05T02:13:53.824Z,27.21
2022-08-05T02:18:45.510Z,27.12
2022-08-05T02:23:52.426Z,27.04
2022-08-05T02:28:59.488Z,26.97
2022-08-05T02:34:06.427Z,26.89
2022-08-05T02:39:13.984Z,26.80
2022-08-05T02:44:20.882Z,26.74
2022-08-05T02:49:37.019Z,26.68
2022-08-05T02:54:37.049Z,26.62
2022-08-05T02:59:50.150Z,26.56
2022-08-05T03:04:53.207Z,26.52
2022-08-05T03:09:56.503Z,26.45
2022-08-05T03:15:03.415Z,26.39
2022-08-05T03:15:03.482Z,26.39
2022-08-05T03:20:10.882Z,26.32
2022-08-05T03:25:32.956Z,26.27
2022-08-05T03:30:30.261Z,26.24
2022-08-05T03:35:33.972Z,26.22
2022-08-05T03:40:39.292Z,26.20
2022-08-05T03:45:55.097Z,26.20
2022-08-05T03:50:53.227Z,26.22
2022-08-05T03:56:11.946Z,26.27
2022-08-05T04:01:07.749Z,26.33
2022-08-05T04:06:14.835Z,26.39
2022-08-05T04:11:21.927Z,26.45
2022-08-05T04:16:32.293Z,26.56
2022-08-05T04:22:08.506Z,26.70
2022-08-05T04:26:43.190Z,26.93
2022-08-05T04:31:50.185Z,27.22
2022-08-05T04:36:57.757Z,27.39
2022-08-05T04:42:04.720Z,27.56
2022-08-05T04:47:14.605Z,27.92
2022-08-05T04:52:18.941Z,28.44
2022-08-05T04:57:28.514Z,28.99
2022-08-05T05:02:36.166Z,29.57
2022-08-05T05:07:40.200Z,29.99
2022-08-05T05:12:47.147Z,30.20
2022-08-05T05:17:57.083Z,30.27
2022-08-05T05:23:08.324Z,30.30
2022-08-05T05:28:09.353Z,30.27
2022-08-05T05:33:17.554Z,30.18
2022-08-05T05:38:27.433Z,30.15
2022-08-05T05:43:58.031Z,30.21
2022-08-05T05:48:37.277Z,30.25
2022-08-05T05:53:54.063Z,30.27
2022-08-05T05:58:51.567Z,30.31
2022-08-05T06:04:02.184Z,30.35
2022-08-05T06:09:06.015Z,30.30
2022-08-05T06:19:34.136Z,30.26
2022-08-05T06:24:27.397Z,30.27
2022-08-05T06:29:46.723Z,30.46
2022-08-05T06:34:40.998Z,31.28
2022-08-05T06:39:48.798Z,32.15
2022-08-05T06:44:55.685Z,32.79
2022-08-05T06:50:05.384Z,33.09
2022-08-05T06:55:09.816Z,33.13
2022-08-05T07:00:22.183Z,33.11
2022-08-05T07:05:36.976Z,33.13
2022-08-05T07:10:32.678Z,33.81
2022-08-05T07:16:01.098Z,35.04
2022-08-05T07:20:45.511Z,35.59
2022-08-05T07:25:55.464Z,35.49
2022-08-05T07:30:59.949Z,35.13
2022-08-05T07:36:20.042Z,34.82
2022-08-05T07:41:35.026Z,34.72
2022-08-05T07:46:25.240Z,34.62
2022-08-05T07:51:40.256Z,34.24
2022-08-05T07:57:00.033Z,33.59
2022-08-05T08:01:52.088Z,32.91
2022-08-05T08:06:49.643Z,32.24
2022-08-05T08:12:00.090Z,31.55
2022-08-05T08:17:04.014Z,31.02
2022-08-05T08:22:11.180Z,30.71
2022-08-05T08:27:18.256Z,30.51
2022-08-05T08:32:28.185Z,30.52
2022-08-05T08:37:32.326Z,30.73
2022-08-05T08:42:50.978Z,30.83
2022-08-05T08:48:06.619Z,30.79
2022-08-05T08:52:54.021Z,30.63
2022-08-05T08:58:01.005Z,30.44
2022-08-05T09:08:15.057Z,29.96
2022-08-05T09:13:23.648Z,29.70
2022-08-05T09:18:29.706Z,29.70
2022-08-05T09:23:37.437Z,29.95
2022-08-05T09:28:43.609Z,30.16
2022-08-05T09:33:51.018Z,30.70
2022-08-05T09:38:58.076Z,31.35
2022-08-05T09:44:05.209Z,31.63
2022-08-05T09:49:19.551Z,31.92
2022-08-05T09:54:21.375Z,32.01
2022-08-05T09:59:27.675Z,31.69
2022-08-05T10:04:33.436Z,31.12
2022-08-05T10:09:45.471Z,30.21
2022-08-05T10:14:48.029Z,29.19
2022-08-05T10:20:03.884Z,28.70
2022-08-05T10:25:02.107Z,28.67
2022-08-05T10:31:20.727Z,28.89
2022-08-05T10:35:16.537Z,28.92
2022-08-05T10:40:28.322Z,28.93
2022-08-05T10:45:41.878Z,28.86
2022-08-05T10:50:37.704Z,28.72
2022-08-05T10:56:05.474Z,28.72
2022-08-05T11:00:55.459Z,29.47
2022-08-05T11:05:58.815Z,30.65
2022-08-05T11:11:14.590Z,31.18
2022-08-05T11:16:13.199Z,31.46
2022-08-05T11:21:20.173Z,32.17
2022-08-05T11:26:29.267Z,33.98
2022-08-05T11:31:58.023Z,35.87
2022-08-05T11:36:42.740Z,37.32
2022-08-05T11:41:56.492Z,38.56
2022-08-05T11:47:09.380Z,39.54
2022-08-05T11:52:08.424Z,40.33
2022-08-05T11:57:24.785Z,41.28
2022-08-05T12:02:30.035Z,42.15
2022-08-05T12:08:09.692Z,42.84
2022-08-05T12:12:31.638Z,43.25
2022-08-05T12:18:03.918Z,43.83
2022-08-05T12:22:46.405Z,44.14
2022-08-05T12:27:53.663Z,44.74
2022-08-05T12:33:07.544Z,45.24
2022-08-05T12:38:07.540Z,45.52
2022-08-05T12:43:21.132Z,45.36
2022-08-05T12:48:32.329Z,45.17
2022-08-05T12:53:36.785Z,45.39
2022-08-05T12:58:48.201Z,45.14
2022-08-05T13:03:45.468Z,44.64
2022-08-05T13:08:51.920Z,44.17
2022-08-05T13:14:05.835Z,43.07
2022-08-05T13:19:04.798Z,42.14
2022-08-05T13:24:11.761Z,41.68
2022-08-05T13:29:19.364Z,41.52
2022-08-05T13:34:26.538Z,41.45
2022-08-05T13:40:16.128Z,41.62
2022-08-05T13:44:45.072Z,41.60
2022-08-05T13:49:47.955Z,41.53
2022-08-05T13:54:54.990Z,41.09
2022-08-05T14:00:03.441Z,40.61
2022-08-05T14:05:11.442Z,40.06
2022-08-05T14:10:19.065Z,39.78
2022-08-05T14:16:04.664Z,39.97
2022-08-05T14:20:30.739Z,40.72
2022-08-05T14:25:37.685Z,41.05
2022-08-05T14:30:46.384Z,40.80
2022-08-05T14:35:54.069Z,40.25
2022-08-05T14:40:59.171Z,39.59
2022-08-05T14:46:06.652Z,38.95
2022-08-05T14:51:16.123Z,38.32
2022-08-05T14:56:22.626Z,37.70
2022-08-05T15:01:48.703Z,36.96
2022-08-05T15:06:35.097Z,36.15
2022-08-05T15:11:51.323Z,35.42
2022-08-05T15:16:49.012Z,34.77
2022-08-05T15:21:58.013Z,34.17
2022-08-05T15:27:03.495Z,33.65
2022-08-05T15:32:10.850Z,33.16
2022-08-05T15:38:03.749Z,32.73
2022-08-05T15:42:53.498Z,32.34
2022-08-05T15:47:31.932Z,32.00
2022-08-05T15:52:52.742Z,31.71
2022-08-05T15:57:49.051Z,31.46
2022-08-05T16:02:53.424Z,31.29
2022-08-05T16:08:00.730Z,31.22
2022-08-05T16:13:07.894Z,31.15
2022-08-05T16:18:14.891Z,31.03
2022-08-05T16:23:21.819Z,30.91
2022-08-05T16:28:29.248Z,30.78
2022-08-05T16:33:41.387Z,30.71
2022-08-05T16:38:43.432Z,30.65
2022-08-05T16:43:56.590Z,30.48
2022-08-05T16:48:57.945Z,30.23
2022-08-05T16:54:15.084Z,29.97
2022-08-05T16:59:15.630Z,29.73
2022-08-05T17:04:19.044Z,29.54
2022-08-05T17:09:26.025Z,29.39
2022-08-05T17:14:36.796Z,29.17
2022-08-05T17:19:40.646Z,28.81
2022-08-05T17:24:57.640Z,28.42
2022-08-05T17:30:00.662Z,28.03
2022-08-05T17:35:01.852Z,27.62
2022-08-05T17:40:10.835Z,27.21
2022-08-05T17:45:20.032Z,26.88
2022-08-05T17:50:29.669Z,26.53
2022-08-05T17:55:37.235Z,26.14
2022-08-05T18:00:40.773Z,25.78
2022-08-05T18:05:44.375Z,25.48
2022-08-05T18:10:51.745Z,25.32
2022-08-05T18:15:59.091Z,25.19
2022-08-05T18:21:05.685Z,25.04
2022-08-05T18:26:13.050Z,24.90
2022-08-05T18:31:20.075Z,24.78
2022-08-05T18:36:28.247Z,24.67
2022-08-05T18:41:58.226Z,24.57
2022-08-05T18:46:43.166Z,24.45
2022-08-05T18:52:04.098Z,24.34
2022-08-05T18:56:57.101Z,24.24
2022-08-05T19:07:09.963Z,24.01
2022-08-05T19:12:16.967Z,23.86
2022-08-05T19:17:23.964Z,23.74
2022-08-05T19:22:31.202Z,23.65
2022-08-05T19:27:38.509Z,23.55
2022-08-05T19:32:45.588Z,23.42
2022-08-05T19:38:06.037Z,23.31
2022-08-05T19:43:00.741Z,23.21
2022-08-05T19:48:06.704Z,23.12
2022-08-05T19:53:13.649Z,23.02
2022-08-05T19:58:28.462Z,22.89
2022-08-05T20:03:29.261Z,22.80
2022-08-05T20:08:34.994Z,22.75
2022-08-05T20:18:55.344Z,22.65
2022-08-05T20:23:56.412Z,22.57
2022-08-05T20:29:03.541Z,22.49
2022-08-05T20:34:10.648Z,22.44
2022-08-05T20:39:17.693Z,22.40
2022-08-05T20:44:30.270Z,22.34
2022-08-05T20:49:37.855Z,22.24
2022-08-05T20:54:55.315Z,22.14
2022-08-05T21:00:19.757Z,22.01
2022-08-05T21:04:53.162Z,21.90
2022-08-05T21:10:00.155Z,21.83
2022-08-05T21:15:07.746Z,21.80
2022-08-05T21:20:14.679Z,21.83
2022-08-05T21:25:21.752Z,21.83
2022-08-05T21:30:31.866Z,21.80
2022-08-05T21:35:55.481Z,21.73
2022-08-05T21:40:42.956Z,21.64
2022-08-05T21:45:56.880Z,21.52
2022-08-05T21:50:57.412Z,21.37
2022-08-05T21:56:09.865Z,21.21
2022-08-05T22:01:11.316Z,21.09
2022-08-05T22:06:22.789Z,21.02
2022-08-05T22:11:34.966Z,20.95
2022-08-05T22:16:50.873Z,20.89
2022-08-05T22:21:39.454Z,20.81
2022-08-05T22:26:49.637Z,20.72
2022-08-05T22:31:55.131Z,20.63
2022-08-05T22:37:00.896Z,20.54
2022-08-05T22:42:11.016Z,20.46
2022-08-05T22:47:29.018Z,20.41
2022-08-05T22:52:30.254Z,20.36
2022-08-05T22:57:34.025Z,20.31
2022-08-05T23:02:39.781Z,20.27
2022-08-05T23:07:48.262Z,20.21
2022-08-05T23:12:51.717Z,20.13
2022-08-05T23:17:59.886Z,20.01
2022-08-05T23:23:05.991Z,19.90
2022-08-05T23:28:12.093Z,19.82
2022-08-05T23:33:25.736Z,19.76
2022-08-05T23:38:26.191Z,19.67
2022-08-05T23:44:02.940Z,19.59
2022-08-05T23:48:40.686Z,19.52
2022-08-05T23:53:47.606Z,19.46
2022-08-05T23:58:54.601Z,19.39
